createdAt,value
2023-03-27T00:02:14.922Z,94927.00
2023-03-27T00:06:21.088Z,94936.00
2023-03-27T00:10:28.973Z,94930.00
2023-03-27T00:14:32.302Z,94935.00
2023-03-27T00:18:37.728Z,94931.00
2023-03-27T00:22:41.062Z,94932.00
2023-03-27T00:26:45.721Z,94933.00
2023-03-27T00:30:52.478Z,94920.00
2023-03-27T00:34:58.341Z,94930.00
2023-03-27T00:39:05.288Z,94921.00
2023-03-27T00:43:26.236Z,94925.00
2023-03-27T00:47:36.322Z,94923.00
2023-03-27T00:51:41.228Z,94916.00
2023-03-27T00:55:47.485Z,94917.00
2023-03-27T00:59:55.759Z,94914.00
2023-03-27T01:04:05.250Z,94921.00
2023-03-27T01:08:15.672Z,94911.00
2023-03-27T01:12:34.970Z,94911.00
2023-03-27T01:16:49.718Z,94900.00
2023-03-27T01:21:20.612Z,94901.00
2023-03-27T01:25:43.207Z,94912.00
2023-03-27T01:30:07.946Z,94907.00
2023-03-27T01:34:39.414Z,94900.00
2023-03-27T01:39:20.701Z,94906.00
2023-03-27T01:43:31.570Z,94914.00
2023-03-27T01:47:43.851Z,94920.00
2023-03-27T01:51:51.212Z,94922.00
2023-03-27T01:56:01.599Z,94920.00
2023-03-27T02:00:17.403Z,94926.00
2023-03-27T02:04:26.622Z,94925.00
2023-03-27T02:08:37.144Z,94924.00
2023-03-27T02:12:58.150Z,94933.00
2023-03-27T02:17:13.407Z,94934.00
2023-03-27T02:21:17.048Z,94939.00
2023-03-27T02:25:25.820Z,94940.00
2023-03-27T02:29:50.439Z,94949.00
2023-03-27T02:34:18.602Z,94955.00
2023-03-27T02:38:32.095Z,94953.00
2023-03-27T02:42:43.014Z,94960.00
2023-03-27T02:46:53.251Z,94958.00
2023-03-27T02:51:03.910Z,94960.00
2023-03-27T02:55:11.631Z,94968.00
2023-03-27T02:59:28.488Z,94970.00
2023-03-27T03:03:41.797Z,94972.00
2023-03-27T03:07:49.106Z,94972.00
2023-03-27T03:12:03.968Z,94965.00
2023-03-27T03:16:10.354Z,94979.00
2023-03-27T03:20:16.813Z,94998.00
2023-03-27T03:24:21.967Z,95015.00
2023-03-27T03:28:26.189Z,95027.00
2023-03-27T03:32:38.939Z,95037.00
2023-03-27T03:36:45.099Z,95049.00
2023-03-27T03:40:52.744Z,95043.00
2023-03-27T03:44:55.954Z,95064.00
2023-03-27T03:48:59.481Z,95071.00
2023-03-27T03:53:04.232Z,95085.00
2023-03-27T03:57:10.282Z,95102.00
2023-03-27T04:01:15.554Z,95114.00
2023-03-27T04:05:19.112Z,95130.00
2023-03-27T04:09:23.696Z,95142.00
2023-03-27T04:13:29.484Z,95158.00
2023-03-27T04:17:33.625Z,95167.00
2023-03-27T04:21:37.859Z,95171.00
2023-03-27T04:25:42.656Z,95204.00
2023-03-27T04:29:54.321Z,95212.00
2023-03-27T04:33:57.445Z,95226.00
2023-03-27T04:38:01.831Z,95239.00
2023-03-27T04:42:09.176Z,95241.00
2023-03-27T04:46:12.229Z,95256.00
2023-03-27T04:50:16.540Z,95271.00
2023-03-27T04:54:19.636Z,95280.00
2023-03-27T04:58:26.406Z,95286.00
2023-03-27T05:02:31.354Z,95311.00
2023-03-27T05:06:54.623Z,95305.00
2023-03-27T05:10:58.757Z,95324.00
2023-03-27T05:15:07.074Z,95357.00
2023-03-27T05:19:10.157Z,95361.00
2023-03-27T05:23:14.386Z,95364.00
2023-03-27T05:27:17.413Z,95371.00
2023-03-27T05:31:26.348Z,95386.00
2023-03-27T05:35:32.170Z,95409.00
2023-03-27T05:39:36.629Z,95403.00
2023-03-27T05:43:39.635Z,95417.00
2023-03-27T05:47:51.124Z,95431.00
2023-03-27T05:51:54.461Z,95438.00
2023-03-27T05:56:03.119Z,95448.00
2023-03-27T06:00:18.878Z,95467.00
2023-03-27T06:04:23.340Z,95477.00
2023-03-27T06:08:30.167Z,95487.00
2023-03-27T06:12:33.607Z,95503.00
2023-03-27T06:16:36.984Z,95502.00
2023-03-27T06:20:42.902Z,95508.00
2023-03-27T06:24:46.725Z,95508.00
2023-03-27T06:28:50.059Z,95521.00
2023-03-27T06:32:55.262Z,95531.00
2023-03-27T06:37:06.798Z,95548.00
2023-03-27T06:41:11.832Z,95577.00
2023-03-27T06:45:14.866Z,95570.00
2023-03-27T06:49:17.943Z,95593.00
2023-03-27T06:53:28.033Z,95606.00
2023-03-27T06:57:38.101Z,95626.00
2023-03-27T07:01:46.798Z,95627.00
2023-03-27T07:05:51.599Z,95656.00
2023-03-27T07:09:57.546Z,95670.00
2023-03-27T07:14:01.005Z,95673.00
2023-03-27T07:18:08.413Z,95677.00
2023-03-27T07:22:14.472Z,95683.00
2023-03-27T07:26:18.897Z,95687.00
2023-03-27T07:30:22.396Z,95704.00
2023-03-27T07:34:25.761Z,95724.00
2023-03-27T07:38:31.087Z,95734.00
2023-03-27T07:42:37.345Z,95723.00
2023-03-27T07:46:46.835Z,95738.00
2023-03-27T07:50:54.402Z,95742.00
2023-03-27T07:54:59.192Z,95761.00
2023-03-27T07:59:04.182Z,95761.00
2023-03-27T08:03:08.849Z,95783.00
2023-03-27T08:07:13.478Z,95776.00
2023-03-27T08:11:29.600Z,95790.00
2023-03-27T08:15:39.409Z,95800.00
2023-03-27T08:19:45.576Z,95806.00
2023-03-27T08:23:48.807Z,95813.00
2023-03-27T08:27:52.284Z,95813.00
2023-03-27T08:31:57.048Z,95823.00
2023-03-27T08:36:01.361Z,95830.00
2023-03-27T08:40:15.296Z,95838.00
2023-03-27T08:44:21.405Z,95842.00
2023-03-27T08:48:32.011Z,95853.00
2023-03-27T08:52:39.042Z,95868.00
2023-03-27T08:56:42.122Z,95878.00
2023-03-27T09:00:46.198Z,95889.00
2023-03-27T09:04:59.278Z,95910.00
2023-03-27T09:09:07.621Z,95909.00
2023-03-27T09:13:16.633Z,95911.00
2023-03-27T09:17:24.526Z,95919.00
2023-03-27T09:21:38.019Z,95928.00
2023-03-27T09:25:45.563Z,95945.00
2023-03-27T09:30:05.284Z,95951.00
2023-03-27T09:34:14.783Z,95953.00
2023-03-27T09:38:28.093Z,95970.00
2023-03-27T09:42:39.823Z,95971.00
2023-03-27T09:46:48.580Z,95976.00
2023-03-27T09:50:51.627Z,95982.00
2023-03-27T09:54:56.863Z,95989.00
2023-03-27T09:59:01.670Z,95991.00
2023-03-27T10:03:08.186Z,96009.00
2023-03-27T10:07:24.685Z,96000.00
2023-03-27T10:11:33.156Z,96018.00
2023-03-27T10:15:38.830Z,96030.00
2023-03-27T10:19:46.119Z,96040.00
2023-03-27T10:23:52.573Z,96050.00
2023-03-27T10:28:09.169Z,96039.00
2023-03-27T10:32:12.224Z,96053.00
2023-03-27T10:36:16.880Z,96071.00
2023-03-27T10:40:24.880Z,96055.00
2023-03-27T10:44:31.738Z,96073.00
2023-03-27T10:48:47.198Z,96069.00
2023-03-27T10:53:01.410Z,96082.00
2023-03-27T10:57:09.108Z,96074.00
2023-03-27T11:01:19.605Z,96085.00
2023-03-27T11:05:29.088Z,96078.00
2023-03-27T11:09:37.892Z,96107.00
2023-03-27T11:13:45.850Z,96102.00
2023-03-27T11:17:59.544Z,96093.00
2023-03-27T11:22:10.043Z,96129.00
2023-03-27T11:26:15.877Z,96110.00
2023-03-27T11:30:32.066Z,96123.00
2023-03-27T11:34:41.657Z,96124.00
2023-03-27T11:38:51.742Z,96125.00
2023-03-27T11:42:54.900Z,96145.00
2023-03-27T11:47:29.644Z,96141.00
2023-03-27T11:51:49.275Z,96137.00
2023-03-27T11:56:10.818Z,96153.00
2023-03-27T12:00:26.156Z,96163.00
2023-03-27T12:04:45.543Z,96148.00
2023-03-27T12:09:12.989Z,96157.00
2023-03-27T12:13:58.315Z,96152.00
2023-03-27T12:18:18.308Z,96168.00
2023-03-27T12:22:29.751Z,96171.00
2023-03-27T12:27:05.534Z,96182.00
2023-03-27T12:31:28.700Z,96181.00
2023-03-27T12:35:37.250Z,96187.00
2023-03-27T12:39:50.288Z,96191.00
2023-03-27T12:43:58.985Z,96179.00
2023-03-27T12:48:24.954Z,96191.00
2023-03-27T12:52:29.179Z,96182.00
2023-03-27T12:56:38.122Z,96188.00
2023-03-27T13:00:43.394Z,96192.00
2023-03-27T13:05:27.600Z,96186.00
2023-03-27T13:09:54.134Z,96189.00
2023-03-27T13:14:30.381Z,96192.00
2023-03-27T13:19:00.468Z,96189.00
2023-03-27T13:23:25.702Z,96185.00
2023-03-27T13:27:46.325Z,96202.00
2023-03-27T13:32:10.441Z,96204.00
2023-03-27T13:36:19.973Z,96238.00
2023-03-27T13:40:27.881Z,96244.00
2023-03-27T13:44:52.154Z,96253.00
2023-03-27T13:49:14.480Z,96255.00
2023-03-27T13:53:35.398Z,96241.00
2023-03-27T13:57:54.012Z,96231.00
2023-03-27T14:02:13.164Z,96233.00
2023-03-27T14:06:54.513Z,96215.00
2023-03-27T14:11:09.874Z,96242.00
2023-03-27T14:15:36.035Z,96250.00
2023-03-27T14:20:19.276Z,96244.00
2023-03-27T14:24:33.678Z,96261.00
2023-03-27T14:28:51.591Z,96263.00
2023-03-27T14:33:04.285Z,96262.00
2023-03-27T14:37:29.379Z,96278.00
2023-03-27T14:41:33.319Z,96307.00
2023-03-27T14:45:58.624Z,96291.00
2023-03-27T14:50:02.732Z,96279.00
2023-03-27T14:54:11.763Z,96277.00
2023-03-27T14:58:19.442Z,96281.00
2023-03-27T15:02:32.831Z,96280.00
2023-03-27T15:06:38.490Z,96290.00
2023-03-27T15:10:41.783Z,96294.00
2023-03-27T15:14:45.084Z,96303.00
2023-03-27T15:19:00.427Z,96300.00
2023-03-27T15:23:10.016Z,96314.00
2023-03-27T15:27:20.962Z,96324.00
2023-03-27T15:31:29.887Z,96335.00
2023-03-27T15:35:38.322Z,96323.00
2023-03-27T15:40:07.225Z,96330.00
2023-03-27T15:44:13.471Z,96347.00
2023-03-27T15:48:21.886Z,96354.00
2023-03-27T15:52:36.527Z,96355.00
2023-03-27T15:56:48.636Z,96352.00
2023-03-27T16:00:54.870Z,96345.00
2023-03-27T16:05:01.486Z,96344.00
2023-03-27T16:09:18.048Z,96358.00
2023-03-27T16:13:30.164Z,96355.00
2023-03-27T16:17:39.490Z,96357.00
2023-03-27T16:21:58.403Z,96360.00
2023-03-27T16:26:05.076Z,96369.00
2023-03-27T16:30:23.469Z,96365.00
2023-03-27T16:34:26.694Z,96363.00
2023-03-27T16:38:35.471Z,96373.00
2023-03-27T16:42:39.982Z,96365.00
2023-03-27T16:46:46.618Z,96374.00
2023-03-27T16:50:51.461Z,96380.00
2023-03-27T16:54:56.000Z,96380.00
2023-03-27T16:59:00.689Z,96385.00
2023-03-27T17:03:05.213Z,96393.00
2023-03-27T17:07:08.324Z,96394.00
2023-03-27T17:11:16.746Z,96396.00
2023-03-27T17:15:21.609Z,96395.00
2023-03-27T17:19:24.779Z,96418.00
2023-03-27T17:23:27.870Z,96401.00
2023-03-27T17:27:35.352Z,96402.00
2023-03-27T17:31:40.126Z,96401.00
2023-03-27T17:35:43.419Z,96412.00
2023-03-27T17:39:47.791Z,96415.00
2023-03-27T17:43:50.972Z,96422.00
2023-03-27T17:47:55.547Z,96421.00
2023-03-27T17:51:58.703Z,96431.00
2023-03-27T17:56:01.766Z,96436.00
2023-03-27T18:00:06.503Z,96436.00
2023-03-27T18:04:18.524Z,96436.00
2023-03-27T18:08:21.860Z,96436.00
2023-03-27T18:12:24.960Z,96452.00
2023-03-27T18:16:28.347Z,96455.00
2023-03-27T18:20:32.810Z,96471.00
2023-03-27T18:24:39.107Z,96470.00
2023-03-27T18:28:47.003Z,96483.00
2023-03-27T18:32:50.270Z,96477.00
2023-03-27T18:36:58.571Z,96489.00
2023-03-27T18:41:04.424Z,96494.00
2023-03-27T18:45:09.621Z,96492.00
2023-03-27T18:49:23.810Z,96497.00
2023-03-27T18:53:29.561Z,96497.00
2023-03-27T18:57:34.386Z,96503.00
2023-03-27T19:01:40.648Z,96500.00
2023-03-27T19:05:45.269Z,96502.00
2023-03-27T19:09:49.717Z,96494.00
2023-03-27T19:13:52.809Z,96498.00
2023-03-27T19:17:56.371Z,96506.00
2023-03-27T19:22:02.290Z,96505.00
2023-03-27T19:26:11.849Z,96503.00
2023-03-27T19:30:18.446Z,96504.00
2023-03-27T19:34:32.657Z,96514.00
2023-03-27T19:38:40.127Z,96527.00
2023-03-27T19:42:48.455Z,96531.00
2023-03-27T19:46:55.998Z,96530.00
2023-03-27T19:51:06.084Z,96543.00
2023-03-27T19:55:09.896Z,96553.00
2023-03-27T19:59:29.833Z,96552.00
2023-03-27T20:03:35.340Z,96537.00
2023-03-27T20:07:39.013Z,96549.00
2023-03-27T20:11:46.720Z,96537.00
2023-03-27T20:15:56.014Z,96546.00
2023-03-27T20:20:02.011Z,96546.00
2023-03-27T20:24:13.793Z,96555.00
2023-03-27T20:28:17.114Z,96549.00
2023-03-27T20:32:29.046Z,96550.00
2023-03-27T20:36:33.413Z,96552.00
2023-03-27T20:44:58.889Z,96557.00
2023-03-27T20:49:03.571Z,96561.00
2023-03-27T20:53:10.166Z,96562.00
2023-03-27T20:57:13.261Z,96570.00
2023-03-27T21:01:21.987Z,96574.00
2023-03-27T21:05:30.853Z,96572.00
2023-03-27T21:09:33.859Z,96573.00
2023-03-27T21:13:38.108Z,96579.00
2023-03-27T21:17:42.331Z,96581.00
2023-03-27T21:21:49.645Z,96588.00
2023-03-27T21:25:55.470Z,96595.00
2023-03-27T21:30:02.838Z,96595.00
2023-03-27T21:34:10.908Z,96592.00
2023-03-27T21:38:16.096Z,96601.00
2023-03-27T21:42:21.712Z,96601.00
2023-03-27T21:46:24.875Z,96610.00
2023-03-27T21:50:31.326Z,96608.00
2023-03-27T21:54:36.101Z,96600.00
2023-03-27T21:58:44.362Z,96603.00
2023-03-27T22:02:47.568Z,96606.00
2023-03-27T22:06:52.364Z,96604.00
2023-03-27T22:11:00.119Z,96604.00
2023-03-27T22:15:03.451Z,96611.00
2023-03-27T22:19:08.546Z,96605.00
2023-03-27T22:23:12.892Z,96605.00
2023-03-27T22:27:19.393Z,96616.00
2023-03-27T22:31:23.101Z,96610.00
2023-03-27T22:35:26.511Z,96623.00
2023-03-27T22:39:29.758Z,96619.00
2023-03-27T22:43:35.300Z,96637.00
2023-03-27T22:47:40.878Z,96639.00
2023-03-27T22:51:44.275Z,96653.00
2023-03-27T22:55:49.454Z,96656.00
2023-03-27T22:59:54.370Z,96648.00
2023-03-27T23:03:59.686Z,96643.00
2023-03-27T23:08:08.876Z,96643.00
2023-03-27T23:12:16.516Z,96655.00
2023-03-27T23:16:24.878Z,96664.00
2023-03-27T23:20:28.470Z,96665.00
2023-03-27T23:24:34.729Z,96670.00
2023-03-27T23:28:40.431Z,96669.00
2023-03-27T23:32:45.238Z,96673.00
2023-03-27T23:36:51.207Z,96678.00
2023-03-27T23:40:57.877Z,96682.00
2023-03-27T23:45:02.256Z,96674.00
2023-03-27T23:49:06.729Z,96680.00
2023-03-27T23:53:11.174Z,96685.00
2023-03-27T23:57:16.640Z,96689.00
